createdAt,value
2023-05-24T00:00:01.353Z,24.70
2023-05-24T00:02:28.930Z,24.68
2023-05-24T00:04:55.669Z,24.67
2023-05-24T00:07:22.349Z,24.64
2023-05-24T00:09:48.991Z,24.57
2023-05-24T00:12:17.160Z,24.49
2023-05-24T00:14:43.682Z,24.45
2023-05-24T00:17:10.213Z,24.38
2023-05-24T00:19:37.731Z,24.30
2023-05-24T00:22:04.576Z,24.25
2023-05-24T00:24:31.532Z,24.24
2023-05-24T00:26:58.046Z,24.19
2023-05-24T00:29:24.550Z,24.13
2023-05-24T00:31:51.493Z,24.13
2023-05-24T00:34:18.580Z,24.13
2023-05-24T00:36:45.843Z,24.12
2023-05-24T00:39:12.581Z,24.10
2023-05-24T00:41:39.188Z,24.10
2023-05-24T00:44:06.138Z,24.10
2023-05-24T00:46:32.965Z,24.10
2023-05-24T00:49:00.137Z,24.13
2023-05-24T00:51:27.492Z,24.15
2023-05-24T00:53:54.902Z,24.19
2023-05-24T00:56:22.480Z,24.23
2023-05-24T00:58:50.229Z,24.25
2023-05-24T01:01:17.757Z,24.24
2023-05-24T01:03:45.715Z,24.21
2023-05-24T01:06:15.387Z,24.18
2023-05-24T01:08:51.286Z,24.12
2023-05-24T01:11:18.159Z,24.05
2023-05-24T01:13:51.231Z,23.95
2023-05-24T01:16:22.174Z,23.86
2023-05-24T01:19:01.529Z,23.77
2023-05-24T01:21:51.136Z,23.76
2023-05-24T01:24:30.728Z,23.70
2023-05-24T01:27:07.100Z,23.60
2023-05-24T01:29:35.426Z,23.49
2023-05-24T01:32:02.545Z,23.43
2023-05-24T01:34:29.281Z,23.49
2023-05-24T01:36:56.161Z,23.60
2023-05-24T01:39:25.175Z,23.63
2023-05-24T01:42:17.029Z,23.64
2023-05-24T01:44:49.393Z,23.63
2023-05-24T01:47:37.716Z,23.62
2023-05-24T01:50:18.234Z,23.62
2023-05-24T01:52:45.492Z,23.63
2023-05-24T01:55:14.012Z,23.66
2023-05-24T01:57:40.852Z,23.72
2023-05-24T02:00:09.244Z,23.75
2023-05-24T02:02:40.827Z,23.78
2023-05-24T02:05:07.753Z,23.74
2023-05-24T02:07:35.117Z,23.66
2023-05-24T02:10:02.021Z,23.62
2023-05-24T02:12:29.037Z,23.63
2023-05-24T02:14:56.722Z,23.66
2023-05-24T02:17:26.337Z,23.68
2023-05-24T02:19:53.044Z,23.78
2023-05-24T02:22:21.794Z,23.86
2023-05-24T02:24:48.645Z,23.87
2023-05-24T02:27:15.608Z,23.85
2023-05-24T02:29:42.767Z,23.86
2023-05-24T02:32:09.506Z,23.88
2023-05-24T02:34:36.779Z,23.83
2023-05-24T02:37:04.162Z,23.73
2023-05-24T02:39:32.652Z,23.60
2023-05-24T02:41:59.417Z,23.46
2023-05-24T02:44:25.958Z,23.37
2023-05-24T02:46:52.947Z,23.32
2023-05-24T02:49:19.518Z,23.28
2023-05-24T02:51:46.106Z,23.26
2023-05-24T02:54:12.741Z,23.23
2023-05-24T02:56:39.928Z,23.23
2023-05-24T02:59:06.878Z,23.31
2023-05-24T03:01:35.092Z,23.50
2023-05-24T03:04:02.327Z,23.85
2023-05-24T03:06:30.599Z,24.22
2023-05-24T03:08:57.906Z,24.61
2023-05-24T03:11:25.841Z,25.02
2023-05-24T03:13:52.693Z,25.41
2023-05-24T03:16:20.570Z,25.79
2023-05-24T03:18:50.119Z,26.18
2023-05-24T03:21:19.892Z,26.57
2023-05-24T03:23:46.751Z,26.94
2023-05-24T03:26:13.280Z,27.27
2023-05-24T03:28:41.549Z,27.61
2023-05-24T03:31:08.787Z,27.95
2023-05-24T03:33:36.574Z,28.29
2023-05-24T03:36:04.397Z,28.65
2023-05-24T03:38:33.176Z,28.98
2023-05-24T03:40:59.838Z,29.28
2023-05-24T03:43:29.170Z,29.59
2023-05-24T03:45:57.983Z,29.90
2023-05-24T03:48:24.957Z,30.18
2023-05-24T03:50:51.894Z,30.43
2023-05-24T03:53:19.522Z,30.72
2023-05-24T03:55:47.273Z,31.06
2023-05-24T03:58:14.142Z,31.39
2023-05-24T04:00:40.929Z,31.68
2023-05-24T04:03:08.448Z,31.92
2023-05-24T04:05:35.423Z,32.16
2023-05-24T04:08:02.774Z,32.47
2023-05-24T04:10:29.840Z,32.80
2023-05-24T04:12:56.898Z,33.14
2023-05-24T04:15:23.847Z,33.46
2023-05-24T04:17:54.451Z,33.76
2023-05-24T04:20:26.856Z,34.05
2023-05-24T04:22:53.866Z,34.32
2023-05-24T04:25:20.617Z,34.57
2023-05-24T04:27:48.190Z,34.80
2023-05-24T04:30:18.913Z,35.05
2023-05-24T04:32:46.885Z,35.16
2023-05-24T04:35:13.714Z,35.19
2023-05-24T04:37:40.641Z,35.33
2023-05-24T04:40:08.774Z,35.57
2023-05-24T04:42:35.453Z,35.83
2023-05-24T04:45:02.405Z,36.04
2023-05-24T04:47:29.422Z,36.23
2023-05-24T04:49:56.468Z,36.38
2023-05-24T04:52:23.263Z,36.46
2023-05-24T04:54:50.668Z,36.57
2023-05-24T04:57:17.250Z,36.69
2023-05-24T04:59:43.985Z,36.88
2023-05-24T05:02:10.662Z,37.09
2023-05-24T05:04:37.772Z,37.29
2023-05-24T05:07:05.050Z,37.49
2023-05-24T05:09:32.013Z,37.74
2023-05-24T05:11:59.260Z,37.94
2023-05-24T05:14:25.858Z,38.09
2023-05-24T05:16:52.440Z,38.25
2023-05-24T05:19:19.201Z,38.41
2023-05-24T05:21:45.909Z,38.45
2023-05-24T05:24:14.539Z,38.55
2023-05-24T05:26:41.258Z,38.72
2023-05-24T05:29:08.074Z,38.85
2023-05-24T05:31:34.970Z,38.98
2023-05-24T05:34:01.538Z,39.11
2023-05-24T05:36:29.392Z,39.21
2023-05-24T05:38:56.051Z,39.24
2023-05-24T05:41:22.891Z,39.32
2023-05-24T05:43:49.971Z,39.44
2023-05-24T05:46:16.629Z,39.60
2023-05-24T05:48:45.647Z,39.71
2023-05-24T05:51:13.511Z,39.81
2023-05-24T05:53:40.173Z,39.95
2023-05-24T05:56:07.054Z,40.11
2023-05-24T05:58:33.849Z,40.27
2023-05-24T06:01:00.650Z,40.40
2023-05-24T06:03:27.591Z,40.55
2023-05-24T06:05:54.681Z,40.71
2023-05-24T06:08:21.566Z,40.85
2023-05-24T06:10:49.204Z,40.96
2023-05-24T06:13:17.893Z,41.03
2023-05-24T06:15:44.730Z,41.04
2023-05-24T06:18:12.964Z,40.82
2023-05-24T06:20:39.907Z,40.49
2023-05-24T06:23:06.595Z,40.36
2023-05-24T06:25:33.889Z,40.26
2023-05-24T06:28:00.548Z,40.18
2023-05-24T06:30:27.438Z,40.15
2023-05-24T06:32:55.735Z,39.97
2023-05-24T06:35:22.741Z,39.91
2023-05-24T06:37:49.626Z,39.90
2023-05-24T06:40:16.827Z,39.86
2023-05-24T06:42:43.644Z,39.88
2023-05-24T06:45:10.723Z,40.04
2023-05-24T06:47:37.957Z,39.97
2023-05-24T06:50:06.120Z,39.84
2023-05-24T06:52:33.040Z,39.84
2023-05-24T06:54:59.754Z,39.85
2023-05-24T06:57:26.605Z,39.77
2023-05-24T06:59:53.440Z,39.57
2023-05-24T07:02:25.859Z,39.37
2023-05-24T07:04:52.974Z,39.27
2023-05-24T07:07:20.128Z,39.03
2023-05-24T07:09:47.203Z,38.72
2023-05-24T07:12:14.342Z,38.55
2023-05-24T07:14:42.191Z,38.44
2023-05-24T07:17:09.216Z,38.19
2023-05-24T07:19:36.228Z,37.85
2023-05-24T07:22:02.956Z,37.68
2023-05-24T07:24:31.497Z,37.67
2023-05-24T07:27:03.016Z,37.59
2023-05-24T07:29:29.849Z,37.49
2023-05-24T07:31:57.498Z,37.55
2023-05-24T07:34:26.960Z,37.22
2023-05-24T07:36:58.432Z,36.62
2023-05-24T07:39:26.768Z,36.07
2023-05-24T07:41:54.271Z,35.87
2023-05-24T07:44:21.007Z,35.94
2023-05-24T07:46:48.404Z,36.10
2023-05-24T07:49:15.563Z,36.31
2023-05-24T07:51:42.446Z,36.40
2023-05-24T07:54:09.331Z,36.11
2023-05-24T07:56:37.218Z,35.89
2023-05-24T07:59:04.053Z,35.80
2023-05-24T08:01:31.759Z,35.73
2023-05-24T08:03:58.546Z,35.72
2023-05-24T08:06:26.012Z,35.76
2023-05-24T08:08:52.879Z,35.77
2023-05-24T08:11:19.781Z,35.68
2023-05-24T08:13:46.501Z,35.58
2023-05-24T08:16:13.127Z,35.53
2023-05-24T08:18:39.827Z,35.61
2023-05-24T08:21:07.494Z,35.62
2023-05-24T08:23:38.903Z,35.49
2023-05-24T08:26:06.119Z,35.49
2023-05-24T08:28:35.046Z,35.49
2023-05-24T08:31:01.899Z,35.37
2023-05-24T08:33:29.239Z,35.25
2023-05-24T08:35:56.001Z,35.21
2023-05-24T08:38:22.812Z,35.26
2023-05-24T08:42:07.797Z,34.19
2023-05-24T08:44:54.047Z,35.17
2023-05-24T08:47:22.122Z,35.29
2023-05-24T08:49:50.971Z,35.30
2023-05-24T08:52:19.768Z,35.16
2023-05-24T09:02:26.894Z,34.55
2023-05-24T09:12:37.438Z,35.29
2023-05-24T09:23:03.479Z,35.31
2023-05-24T09:25:30.859Z,35.33
2023-05-24T09:27:58.345Z,35.35
2023-05-24T09:30:25.976Z,35.32
2023-05-24T09:33:00.814Z,35.36
2023-05-24T09:35:28.575Z,35.51
2023-05-24T09:38:02.654Z,35.70
2023-05-24T09:40:30.278Z,35.77
2023-05-24T09:43:09.005Z,35.84
2023-05-24T09:45:43.112Z,35.90
2023-05-24T09:48:11.888Z,35.69
2023-05-24T09:50:39.603Z,35.54
2023-05-24T10:00:44.477Z,35.49
2023-05-24T10:03:12.953Z,35.64
2023-05-24T10:08:33.936Z,35.81
2023-05-24T10:11:06.027Z,35.78
2023-05-24T10:13:36.674Z,35.83
2023-05-24T10:22:31.535Z,35.48
2023-05-24T10:24:59.854Z,35.24
2023-05-24T10:27:31.744Z,35.14
2023-05-24T10:30:15.529Z,35.02
2023-05-24T10:32:43.996Z,34.95
2023-05-24T10:35:15.146Z,34.92
2023-05-24T10:37:43.051Z,34.92
2023-05-24T10:40:18.108Z,34.89
2023-05-24T10:41:46.628Z,35.75
2023-05-24T10:42:46.291Z,34.82
2023-05-24T10:45:22.997Z,34.77
2023-05-24T10:47:50.510Z,34.72
2023-05-24T10:50:19.200Z,34.68
2023-05-24T10:52:47.757Z,34.65
2023-05-24T10:55:15.359Z,34.62
2023-05-24T10:57:42.876Z,34.58
2023-05-24T11:00:34.609Z,34.48
2023-05-24T11:03:06.853Z,34.48
2023-05-24T11:05:47.042Z,34.47
2023-05-24T11:08:14.593Z,34.48
2023-05-24T11:10:43.509Z,34.52
2023-05-24T11:13:11.714Z,34.58
2023-05-24T11:15:39.875Z,34.68
2023-05-24T11:18:12.388Z,34.78
2023-05-24T11:20:45.142Z,34.90
2023-05-24T11:23:14.557Z,34.97
2023-05-24T11:25:42.897Z,35.00
2023-05-24T11:35:55.043Z,35.11
2023-05-24T11:38:24.916Z,35.12
2023-05-24T11:40:52.603Z,35.15
2023-05-24T11:43:20.722Z,35.18
2023-05-24T11:45:51.999Z,35.20
2023-05-24T11:48:19.889Z,35.16
2023-05-24T11:50:51.692Z,35.13
2023-05-24T11:53:20.627Z,35.09
2023-05-24T11:55:48.949Z,35.05
2023-05-24T11:58:23.481Z,34.99
2023-05-24T12:00:51.700Z,34.96
2023-05-24T12:03:19.283Z,34.92
2023-05-24T12:05:46.857Z,34.90
2023-05-24T12:08:15.903Z,34.89
2023-05-24T12:10:43.860Z,34.89
2023-05-24T12:20:50.950Z,34.83
2023-05-24T12:23:24.260Z,34.91
2023-05-24T12:25:51.747Z,34.92
2023-05-24T12:28:23.903Z,34.92
2023-05-24T12:30:51.713Z,34.97
2023-05-24T12:33:20.193Z,34.98
2023-05-24T12:35:48.319Z,34.86
2023-05-24T12:38:20.027Z,34.73
2023-05-24T12:40:59.778Z,34.71
2023-05-24T12:43:35.410Z,34.74
2023-05-24T12:46:03.842Z,34.76
2023-05-24T12:48:31.620Z,34.77
2023-05-24T12:50:59.068Z,34.78
2023-05-24T12:53:26.752Z,34.80
2023-05-24T12:55:56.201Z,34.85
2023-05-24T12:58:23.714Z,34.73
2023-05-24T13:00:52.091Z,34.61
2023-05-24T13:03:19.475Z,34.43
2023-05-24T13:05:47.480Z,34.31
2023-05-24T13:08:14.842Z,34.23
2023-05-24T13:10:42.394Z,34.16
2023-05-24T13:13:10.119Z,34.10
2023-05-24T13:15:38.694Z,33.97
2023-05-24T13:18:06.362Z,33.87
2023-05-24T13:20:34.096Z,33.79
2023-05-24T13:23:01.547Z,33.71
2023-05-24T13:25:29.339Z,33.69
2023-05-24T13:27:57.266Z,33.70
2023-05-24T13:30:27.883Z,33.67
2023-05-24T13:32:55.875Z,33.58
2023-05-24T13:35:23.434Z,33.57
2023-05-24T13:37:52.703Z,33.59
2023-05-24T13:40:20.174Z,33.68
2023-05-24T13:42:47.780Z,33.81
2023-05-24T13:45:15.261Z,33.90
2023-05-24T13:47:43.025Z,33.97
2023-05-24T13:50:11.236Z,34.05
2023-05-24T13:52:38.636Z,34.15
2023-05-24T13:55:06.593Z,34.19
2023-05-24T14:00:09.311Z,33.99
2023-05-24T14:02:38.206Z,33.85
2023-05-24T14:05:25.013Z,33.85
2023-05-24T14:07:55.202Z,33.91
2023-05-24T14:10:22.740Z,33.89
2023-05-24T14:13:00.021Z,33.78
2023-05-24T14:15:37.850Z,33.65
2023-05-24T14:18:08.207Z,33.56
2023-05-24T14:20:40.373Z,33.43
2023-05-24T14:23:08.288Z,33.30
2023-05-24T14:25:35.873Z,33.19
2023-05-24T14:28:08.517Z,33.10
2023-05-24T14:30:37.933Z,33.07
2023-05-24T14:33:08.684Z,33.02
2023-05-24T14:35:39.597Z,33.03
2023-05-24T14:38:09.455Z,33.03
2023-05-24T14:40:37.832Z,33.01
2023-05-24T14:43:06.307Z,33.06
2023-05-24T14:45:33.781Z,33.10
2023-05-24T14:48:02.578Z,33.12
2023-05-24T14:50:30.291Z,33.15
2023-05-24T14:52:57.795Z,33.17
2023-05-24T14:55:25.145Z,33.18
2023-05-24T14:57:52.582Z,33.19
2023-05-24T15:00:22.609Z,33.21
2023-05-24T15:02:51.745Z,33.27
2023-05-24T15:05:19.587Z,33.33
2023-05-24T15:07:47.063Z,33.34
2023-05-24T15:10:14.426Z,33.31
2023-05-24T15:12:42.003Z,33.31
2023-05-24T15:15:09.694Z,33.27
2023-05-24T15:17:37.084Z,33.30
2023-05-24T15:20:04.860Z,33.33
2023-05-24T15:22:33.516Z,33.37
2023-05-24T15:25:01.072Z,33.38
2023-05-24T15:27:28.440Z,33.39
2023-05-24T15:29:59.172Z,33.36
2023-05-24T15:32:26.675Z,33.34
2023-05-24T15:34:54.112Z,33.32
2023-05-24T15:37:22.583Z,33.26
2023-05-24T15:39:57.624Z,33.22
2023-05-24T15:42:25.463Z,33.06
2023-05-24T15:44:52.812Z,32.97
2023-05-24T15:47:22.196Z,32.92
2023-05-24T15:49:50.125Z,32.91
2023-05-24T15:52:17.510Z,32.98
2023-05-24T15:54:44.977Z,33.03
2023-05-24T15:57:12.333Z,33.02
2023-05-24T15:59:39.929Z,33.02
2023-05-24T16:02:08.029Z,33.07
2023-05-24T16:04:35.599Z,33.00
2023-05-24T16:07:03.027Z,32.94
2023-05-24T16:09:30.602Z,32.87
2023-05-24T16:11:58.021Z,32.84
2023-05-24T16:14:26.049Z,32.77
2023-05-24T16:16:54.975Z,32.73
2023-05-24T16:19:24.169Z,32.77
2023-05-24T16:21:51.578Z,32.80
2023-05-24T16:24:19.768Z,32.75
2023-05-24T16:26:47.172Z,32.74
2023-05-24T16:29:16.846Z,32.69
2023-05-24T16:31:44.256Z,32.62
2023-05-24T16:34:11.750Z,32.56
2023-05-24T16:36:39.848Z,32.42
2023-05-24T16:39:07.384Z,32.19
2023-05-24T16:41:37.749Z,31.98
2023-05-24T16:44:10.917Z,31.82
2023-05-24T16:46:41.894Z,31.65
2023-05-24T16:49:09.561Z,31.46
2023-05-24T16:51:37.097Z,31.28
2023-05-24T16:54:05.225Z,31.24
2023-05-24T16:56:32.621Z,31.30
2023-05-24T16:59:00.115Z,31.31
2023-05-24T17:01:27.528Z,31.26
2023-05-24T17:03:55.016Z,31.17
2023-05-24T17:06:22.491Z,31.03
2023-05-24T17:08:50.935Z,30.92
2023-05-24T17:11:19.820Z,30.83
2023-05-24T17:13:47.272Z,30.78
2023-05-24T17:16:14.831Z,30.81
2023-05-24T17:18:42.327Z,30.91
2023-05-24T17:21:09.770Z,31.01
2023-05-24T17:23:37.584Z,31.16
2023-05-24T17:26:08.016Z,31.34
2023-05-24T17:28:36.417Z,31.53
2023-05-24T17:31:04.096Z,31.67
2023-05-24T17:33:32.309Z,31.78
2023-05-24T17:36:06.400Z,31.84
2023-05-24T17:38:35.068Z,31.85
2023-05-24T17:41:02.589Z,31.87
2023-05-24T17:43:32.465Z,31.90
2023-05-24T17:46:06.752Z,31.94
2023-05-24T17:48:38.588Z,31.95
2023-05-24T17:51:07.254Z,31.95
2023-05-24T17:53:35.573Z,31.96
2023-05-24T17:56:03.271Z,31.96
2023-05-24T17:58:32.875Z,31.93
2023-05-24T18:01:00.451Z,31.79
2023-05-24T18:03:28.156Z,31.62
2023-05-24T18:05:56.135Z,31.47
2023-05-24T18:08:25.374Z,31.37
2023-05-24T18:10:52.881Z,31.31
2023-05-24T18:13:20.432Z,31.25
2023-05-24T18:15:48.640Z,31.24
2023-05-24T18:18:16.670Z,31.21
2023-05-24T18:20:44.632Z,31.13
2023-05-24T18:23:12.312Z,31.06
2023-05-24T18:25:39.775Z,30.97
2023-05-24T18:28:07.621Z,30.91
2023-05-24T18:30:35.190Z,30.89
2023-05-24T18:33:07.826Z,30.92
2023-05-24T18:35:35.835Z,30.95
2023-05-24T18:42:52.732Z,30.88
2023-05-24T18:45:20.277Z,30.84
2023-05-24T18:47:48.024Z,30.83
2023-05-24T18:50:27.652Z,30.77
2023-05-24T18:52:55.274Z,30.70
2023-05-24T18:55:22.760Z,30.63
2023-05-24T18:57:50.337Z,30.57
2023-05-24T19:00:23.138Z,30.50
2023-05-24T19:02:50.779Z,30.36
2023-05-24T19:05:20.681Z,30.23
2023-05-24T19:07:52.171Z,30.07
2023-05-24T19:10:23.183Z,29.94
2023-05-24T19:12:53.198Z,29.87
2023-05-24T19:15:23.593Z,29.81
2023-05-24T19:17:56.277Z,29.76
2023-05-24T19:20:26.853Z,29.74
2023-05-24T19:22:56.270Z,29.74
2023-05-24T19:25:27.246Z,29.73
2023-05-24T19:32:46.513Z,29.72
2023-05-24T19:35:18.199Z,29.71
2023-05-24T19:37:49.227Z,29.72
2023-05-24T19:40:20.095Z,29.74
2023-05-24T19:42:51.697Z,29.72
2023-05-24T19:45:22.243Z,29.68
2023-05-24T19:47:53.117Z,29.63
2023-05-24T19:50:23.573Z,29.58
2023-05-24T19:52:53.490Z,29.53
2023-05-24T19:55:24.294Z,29.47
2023-05-24T19:57:54.666Z,29.40
2023-05-24T20:00:25.276Z,29.35
2023-05-24T20:02:55.290Z,29.30
2023-05-24T20:13:00.176Z,29.07
2023-05-24T20:15:28.591Z,29.03
2023-05-24T20:17:56.240Z,29.00
2023-05-24T20:20:24.025Z,28.98
2023-05-24T20:22:51.641Z,28.92
2023-05-24T20:25:19.677Z,28.86
2023-05-24T20:27:47.017Z,28.80
2023-05-24T20:30:14.565Z,28.74
2023-05-24T20:32:42.061Z,28.66
2023-05-24T20:35:09.937Z,28.59
2023-05-24T20:37:37.654Z,28.48
2023-05-24T20:40:05.703Z,28.37
2023-05-24T20:42:33.149Z,28.32
2023-05-24T20:45:00.896Z,28.28
2023-05-24T20:47:30.269Z,28.23
2023-05-24T20:49:57.888Z,28.17
2023-05-24T20:52:25.301Z,28.13
2023-05-24T20:54:52.643Z,28.07
2023-05-24T20:59:58.826Z,26.78
2023-05-24T21:02:29.441Z,27.72
2023-05-24T21:04:57.122Z,27.81
2023-05-24T21:07:24.524Z,27.79
2023-05-24T21:09:52.113Z,27.77
2023-05-24T21:12:19.720Z,27.76
2023-05-24T21:14:47.111Z,27.76
2023-05-24T21:17:14.660Z,27.77
2023-05-24T21:19:42.131Z,27.76
2023-05-24T21:22:09.525Z,27.77
2023-05-24T21:24:37.047Z,27.77
2023-05-24T21:27:04.865Z,27.72
2023-05-24T21:29:32.226Z,27.67
2023-05-24T21:31:59.637Z,27.63
2023-05-24T21:34:28.385Z,27.59
2023-05-24T21:36:55.800Z,27.57
2023-05-24T21:39:23.299Z,27.56
2023-05-24T21:41:50.710Z,27.57
2023-05-24T21:44:18.227Z,27.57
2023-05-24T21:46:45.675Z,27.56
2023-05-24T21:49:13.187Z,27.53
2023-05-24T21:51:40.573Z,27.49
2023-05-24T21:54:08.019Z,27.48
2023-05-24T21:56:35.462Z,27.43
2023-05-24T21:59:03.148Z,27.37
2023-05-24T22:01:30.601Z,27.32
2023-05-24T22:03:58.275Z,27.28
2023-05-24T22:06:25.761Z,27.21
2023-05-24T22:08:53.186Z,27.10
2023-05-24T22:11:20.888Z,27.04
2023-05-24T22:13:48.217Z,27.00
2023-05-24T22:16:15.646Z,26.94
2023-05-24T22:18:43.101Z,26.91
2023-05-24T22:21:10.696Z,26.90
2023-05-24T22:23:38.077Z,26.90
2023-05-24T22:26:05.753Z,26.91
2023-05-24T22:29:08.814Z,26.94
2023-05-24T22:31:36.489Z,26.97
2023-05-24T22:34:04.229Z,26.99
2023-05-24T22:36:34.989Z,27.00
2023-05-24T22:39:02.429Z,27.01
2023-05-24T22:41:29.898Z,27.03
2023-05-24T22:43:57.439Z,27.03
2023-05-24T22:46:25.006Z,27.03
2023-05-24T22:48:52.685Z,27.00
2023-05-24T22:51:20.385Z,26.89
2023-05-24T22:53:48.320Z,26.76
2023-05-24T22:56:16.404Z,26.56
2023-05-24T22:58:43.803Z,26.39
2023-05-24T23:01:11.492Z,26.29
2023-05-24T23:03:38.977Z,26.22
2023-05-24T23:06:06.965Z,26.17
2023-05-24T23:08:34.434Z,26.14
2023-05-24T23:11:01.913Z,26.09
2023-05-24T23:13:33.313Z,25.99
2023-05-24T23:16:00.954Z,25.90
2023-05-24T23:18:28.642Z,26.00
2023-05-24T23:20:56.242Z,26.16
2023-05-24T23:23:24.849Z,26.20
2023-05-24T23:25:52.369Z,26.21
2023-05-24T23:28:19.806Z,26.20
2023-05-24T23:30:47.176Z,26.22
2023-05-24T23:33:14.543Z,26.26
2023-05-24T23:35:42.166Z,26.28
2023-05-24T23:38:09.720Z,26.25
2023-05-24T23:40:37.056Z,26.19
2023-05-24T23:43:04.442Z,26.16
2023-05-24T23:45:31.771Z,26.17
2023-05-24T23:47:59.255Z,26.18
2023-05-24T23:50:27.504Z,26.00
2023-05-24T23:52:55.014Z,25.94
2023-05-24T23:55:23.292Z,25.92
2023-05-24T23:57:52.179Z,25.88
